Birdseye, Indiana
Current Conditions -  °F | °C
As of 2:15 PM on Monday 24 Nov 2014 (Local Time) from KHNB Reporting Station
Scattered Clouds Scattered Clouds  
Wind Chill: 40°   Ceiling: Unl
Heat Index: 46°   Visibility: 10mi
Dew Point: 36°   Wind: 14mph
Humidity: 66%   Direction: 280°W
Pressure: 29.76"   Gusts: NA
Location:  38.32°N, 86.7°W
Report Text: KHNB 242015Z AUTO 28012KT 10SM SCT032 SCT039 SCT047 08/02 A2976 RMK AO1
Loading
Personal Weather Stations






























Interactive Weather Map New forecast layout! Learn more

10-Day Weather Forecast

Advertisements
Track Severe Weather on mobile